createdAt,value
2019-04-30T00:01:55.766Z,68.45
2019-04-30T00:04:37.237Z,67.67
2019-04-30T00:07:10.197Z,68.09
2019-04-30T00:09:49.133Z,67.27
2019-04-30T00:12:20.013Z,66.55
2019-04-30T00:14:55.039Z,67.09
2019-04-30T00:17:31.086Z,67.71
2019-04-30T00:20:05.528Z,67.69
2019-04-30T00:22:47.166Z,67.69
2019-04-30T00:25:19.626Z,67.71
2019-04-30T00:27:52.071Z,67.64
2019-04-30T00:30:26.537Z,66.96
2019-04-30T00:33:00.900Z,66.96
2019-04-30T00:35:35.645Z,67.35
2019-04-30T00:38:09.921Z,67.35
2019-04-30T00:40:45.009Z,67.45
2019-04-30T00:43:19.374Z,68.00
2019-04-30T00:45:55.146Z,68.00
2019-04-30T00:48:31.282Z,67.87
2019-04-30T00:51:08.933Z,68.17
2019-04-30T00:53:43.780Z,68.17
2019-04-30T00:56:19.968Z,68.12
2019-04-30T00:58:57.417Z,68.50
2019-04-30T01:01:48.315Z,68.58
2019-04-30T01:04:28.868Z,68.48
2019-04-30T01:07:05.321Z,68.48
2019-04-30T01:09:39.739Z,69.08
2019-04-30T01:12:17.463Z,69.22
2019-04-30T01:14:49.940Z,69.36
2019-04-30T01:17:23.935Z,69.38
2019-04-30T01:19:59.230Z,69.20
2019-04-30T01:22:33.684Z,69.36
2019-04-30T01:25:13.302Z,69.20
2019-04-30T01:27:45.774Z,69.31
2019-04-30T01:30:22.867Z,69.31
2019-04-30T01:32:58.823Z,69.61
2019-04-30T01:35:33.281Z,69.53
2019-04-30T01:38:11.065Z,69.53
2019-04-30T01:40:47.557Z,69.77
2019-04-30T01:43:30.474Z,69.97
2019-04-30T01:46:01.786Z,69.69
2019-04-30T01:48:34.952Z,69.74
2019-04-30T01:51:13.363Z,69.27
2019-04-30T01:53:44.802Z,69.27
2019-04-30T01:56:35.509Z,69.32
2019-04-30T01:59:19.691Z,69.49
2019-04-30T02:01:54.281Z,69.72
2019-04-30T02:04:28.996Z,69.86
2019-04-30T02:07:04.728Z,69.85
2019-04-30T02:09:39.112Z,69.79
2019-04-30T02:12:13.604Z,69.67
2019-04-30T02:14:49.759Z,69.64
2019-04-30T02:17:23.918Z,69.54
2019-04-30T02:19:57.378Z,69.49
2019-04-30T02:22:32.612Z,69.51
2019-04-30T02:25:07.301Z,69.49
2019-04-30T02:27:41.768Z,69.49
2019-04-30T02:30:20.521Z,69.15
2019-04-30T02:32:53.279Z,68.48
2019-04-30T02:35:50.108Z,65.55
2019-04-30T02:38:31.278Z,64.37
2019-04-30T02:41:06.320Z,64.37
2019-04-30T02:43:42.937Z,66.59
2019-04-30T02:46:19.284Z,68.02
2019-04-30T02:48:56.105Z,68.02
2019-04-30T02:51:33.651Z,67.39
2019-04-30T02:54:24.021Z,67.39
2019-04-30T02:57:11.286Z,67.63
2019-04-30T03:00:02.654Z,67.93
2019-04-30T03:02:39.160Z,67.97
2019-04-30T03:05:14.316Z,68.32
2019-04-30T03:07:50.358Z,68.44
2019-04-30T03:10:24.696Z,68.46
2019-04-30T03:13:00.010Z,68.36
2019-04-30T03:15:34.647Z,68.43
2019-04-30T03:18:23.155Z,68.47
2019-04-30T03:21:21.717Z,68.41
2019-04-30T03:23:55.940Z,68.34
2019-04-30T03:26:29.714Z,68.10
2019-04-30T03:29:03.932Z,68.22
2019-04-30T03:31:44.401Z,68.34
2019-04-30T03:34:24.154Z,68.25
2019-04-30T03:36:50.546Z,68.05
2019-04-30T03:39:24.938Z,67.93
2019-04-30T03:41:59.730Z,67.76
2019-04-30T03:44:34.106Z,67.66
2019-04-30T03:47:10.918Z,67.43
2019-04-30T03:49:44.300Z,67.55
2019-04-30T03:52:19.762Z,67.55
2019-04-30T03:54:53.894Z,67.70
2019-04-30T03:57:30.203Z,67.77
2019-04-30T04:00:04.274Z,67.46
2019-04-30T04:02:50.170Z,67.75
2019-04-30T04:05:46.305Z,68.30
2019-04-30T04:08:31.941Z,68.46
2019-04-30T04:11:24.526Z,68.07
2019-04-30T04:13:59.726Z,67.89
2019-04-30T04:16:32.680Z,68.32
2019-04-30T04:20:30.589Z,68.63
2019-04-30T04:23:05.112Z,68.63
2019-04-30T04:25:40.317Z,67.85
2019-04-30T04:28:14.726Z,67.85
2019-04-30T04:30:50.580Z,68.18
2019-04-30T04:33:24.944Z,68.02
2019-04-30T04:35:59.812Z,67.66
2019-04-30T04:38:33.942Z,67.66
2019-04-30T04:41:10.349Z,67.57
2019-04-30T04:43:43.943Z,67.45
2019-04-30T04:46:20.320Z,67.65
2019-04-30T04:48:53.928Z,68.46
2019-04-30T04:51:34.499Z,67.91
2019-04-30T04:54:03.419Z,66.84
2019-04-30T04:56:39.866Z,66.92
2019-04-30T05:01:01.335Z,66.98
2019-04-30T05:03:39.925Z,67.12
2019-04-30T05:06:14.371Z,67.31
2019-04-30T05:08:49.351Z,67.31
2019-04-30T05:11:23.737Z,66.76
2019-04-30T05:13:58.934Z,66.02
2019-04-30T05:16:33.330Z,65.36
2019-04-30T05:19:08.895Z,65.36
2019-04-30T05:21:44.759Z,65.36
2019-04-30T05:24:19.010Z,65.06
2019-04-30T05:26:53.328Z,65.21
2019-04-30T05:29:28.937Z,65.21
2019-04-30T05:32:03.274Z,64.95
2019-04-30T05:34:38.571Z,64.95
2019-04-30T05:37:13.265Z,65.00
2019-04-30T05:39:48.945Z,65.00
2019-04-30T05:42:23.306Z,64.78
2019-04-30T05:44:59.341Z,64.78
2019-04-30T05:47:33.727Z,64.92
2019-04-30T05:50:10.266Z,64.63
2019-04-30T05:52:44.922Z,64.20
2019-04-30T05:55:21.262Z,64.08
2019-04-30T05:57:56.558Z,64.61
2019-04-30T06:00:32.278Z,62.83
2019-04-30T06:03:06.766Z,62.14
2019-04-30T06:05:41.271Z,62.72
2019-04-30T06:08:19.199Z,62.72
2019-04-30T06:11:04.703Z,61.45
2019-04-30T06:13:52.358Z,60.39
2019-04-30T06:16:29.822Z,60.20
2019-04-30T06:19:04.252Z,59.01
2019-04-30T06:24:21.264Z,57.20
2019-04-30T06:26:55.656Z,57.20
2019-04-30T06:29:30.118Z,56.01
2019-04-30T06:32:05.300Z,55.33
2019-04-30T06:34:42.062Z,55.33
2019-04-30T06:37:19.260Z,55.00
2019-04-30T06:39:53.313Z,54.39
2019-04-30T06:42:29.342Z,54.97
2019-04-30T06:45:04.342Z,53.27
2019-04-30T06:47:39.301Z,53.75
2019-04-30T06:50:13.851Z,53.22
2019-04-30T06:52:56.688Z,53.25
2019-04-30T06:55:24.572Z,53.22
2019-04-30T06:58:11.176Z,52.63
2019-04-30T07:00:40.023Z,51.58
2019-04-30T07:03:14.924Z,52.07
2019-04-30T07:05:48.821Z,51.04
2019-04-30T07:08:46.767Z,51.04
2019-04-30T07:11:24.303Z,50.55
2019-04-30T07:13:59.960Z,50.27
2019-04-30T07:16:34.730Z,48.47
2019-04-30T07:19:09.399Z,48.47
2019-04-30T07:21:45.321Z,48.38
2019-04-30T07:24:21.080Z,47.87
2019-04-30T07:26:59.711Z,48.12
2019-04-30T07:29:31.719Z,48.38
2019-04-30T07:32:09.217Z,47.82
2019-04-30T07:34:43.253Z,46.63
2019-04-30T07:37:24.078Z,47.56
2019-04-30T07:39:53.666Z,47.06
2019-04-30T07:42:29.386Z,44.98
2019-04-30T07:45:04.283Z,46.24
2019-04-30T07:47:39.618Z,45.13
2019-04-30T07:50:16.371Z,44.78
2019-04-30T07:53:01.651Z,44.98
2019-04-30T07:55:29.363Z,44.97
2019-04-30T07:58:04.318Z,45.04
2019-04-30T08:00:40.274Z,43.64
2019-04-30T08:03:33.777Z,43.64
2019-04-30T08:06:10.098Z,42.01
2019-04-30T08:08:45.054Z,42.19
2019-04-30T08:11:25.810Z,41.79
2019-04-30T08:13:56.195Z,41.79
2019-04-30T08:16:32.418Z,41.58
2019-04-30T08:19:09.030Z,41.58
2019-04-30T08:21:43.708Z,40.42
2019-04-30T08:24:19.345Z,39.87
2019-04-30T08:26:53.784Z,38.84
2019-04-30T08:29:26.618Z,38.38
2019-04-30T08:32:00.946Z,36.23
2019-04-30T08:34:35.267Z,34.75
2019-04-30T08:37:17.322Z,34.75
2019-04-30T08:39:45.937Z,32.85
2019-04-30T08:42:30.701Z,32.17
2019-04-30T08:44:58.076Z,32.03
2019-04-30T08:47:32.735Z,30.49
2019-04-30T08:50:06.658Z,30.49
2019-04-30T08:52:41.277Z,31.20
2019-04-30T08:55:22.045Z,31.63
2019-04-30T08:58:06.585Z,31.63
2019-04-30T09:00:30.286Z,30.18
2019-04-30T09:03:05.301Z,29.45
2019-04-30T09:05:59.021Z,29.69
2019-04-30T09:08:33.748Z,29.32
2019-04-30T09:11:21.768Z,29.15
2019-04-30T09:13:43.920Z,29.22
2019-04-30T09:16:19.415Z,28.02
2019-04-30T09:18:55.762Z,28.59
2019-04-30T09:21:30.049Z,28.59
2019-04-30T09:24:04.699Z,27.59
2019-04-30T09:26:39.330Z,27.59
2019-04-30T09:29:15.703Z,29.12
2019-04-30T09:31:50.252Z,28.41
2019-04-30T09:34:24.718Z,28.02
2019-04-30T09:36:59.137Z,27.80
2019-04-30T09:39:33.711Z,27.57
2019-04-30T09:42:09.273Z,27.57
2019-04-30T09:44:43.792Z,27.62
2019-04-30T09:47:16.997Z,27.62
2019-04-30T09:49:51.124Z,28.20
2019-04-30T09:52:25.734Z,28.91
2019-04-30T09:55:01.865Z,28.10
2019-04-30T09:57:38.887Z,28.10
2019-04-30T10:00:13.795Z,28.04
2019-04-30T10:02:48.883Z,28.61
2019-04-30T10:05:23.660Z,27.55
2019-04-30T10:07:56.691Z,27.55
2019-04-30T10:10:36.348Z,27.17
2019-04-30T10:13:11.422Z,27.94
2019-04-30T10:15:58.444Z,26.83
2019-04-30T10:18:32.946Z,26.50
2019-04-30T10:21:09.122Z,27.09
2019-04-30T10:23:43.714Z,26.67
2019-04-30T10:26:18.051Z,27.58
2019-04-30T10:28:54.320Z,27.02
2019-04-30T10:31:29.318Z,27.16
2019-04-30T10:34:03.950Z,27.86
2019-04-30T10:36:41.236Z,27.32
2019-04-30T10:39:14.552Z,26.71
2019-04-30T10:41:49.100Z,26.40
2019-04-30T10:44:23.646Z,26.46
2019-04-30T10:46:59.325Z,26.74
2019-04-30T10:49:34.273Z,28.13
2019-04-30T10:52:09.439Z,28.98
2019-04-30T10:54:44.265Z,27.64
2019-04-30T10:57:19.094Z,26.47
2019-04-30T10:59:53.648Z,24.02
2019-04-30T11:02:28.731Z,24.02
2019-04-30T11:05:04.293Z,24.83
2019-04-30T11:07:39.157Z,26.82
2019-04-30T11:10:14.134Z,23.55
2019-04-30T11:12:48.680Z,23.55
2019-04-30T11:15:22.460Z,25.34
2019-04-30T11:17:57.072Z,22.88
2019-04-30T11:20:32.150Z,22.28
2019-04-30T11:23:14.336Z,20.60
2019-04-30T11:25:46.008Z,21.52
2019-04-30T11:28:21.657Z,21.52
2019-04-30T11:33:54.647Z,19.90
2019-04-30T11:36:29.292Z,19.00
2019-04-30T11:39:04.239Z,20.26
2019-04-30T11:41:39.557Z,20.79
2019-04-30T11:44:13.948Z,19.54
2019-04-30T11:47:27.280Z,19.53
2019-04-30T11:50:01.676Z,19.46
2019-04-30T11:52:36.023Z,19.20
2019-04-30T11:55:12.558Z,19.93
2019-04-30T11:57:49.399Z,19.65
2019-04-30T12:00:29.709Z,20.36
2019-04-30T12:03:02.797Z,20.36
2019-04-30T12:05:38.888Z,21.56
2019-04-30T12:08:19.556Z,21.08
2019-04-30T12:11:07.272Z,20.50
2019-04-30T12:13:41.683Z,20.50
2019-04-30T12:16:15.012Z,20.73
2019-04-30T12:18:50.941Z,20.48
2019-04-30T12:21:25.293Z,18.79
2019-04-30T12:23:59.767Z,19.12
2019-04-30T12:26:32.642Z,16.82
2019-04-30T12:29:08.983Z,16.82
2019-04-30T12:31:43.037Z,17.06
2019-04-30T12:34:17.326Z,17.48
2019-04-30T12:36:51.876Z,18.15
2019-04-30T12:39:26.265Z,17.51
2019-04-30T12:42:02.346Z,18.10
2019-04-30T12:44:39.879Z,16.27
2019-04-30T12:47:13.642Z,16.70
2019-04-30T12:49:55.298Z,16.70
2019-04-30T12:52:35.107Z,17.37
2019-04-30T12:55:23.103Z,16.11
2019-04-30T12:58:00.437Z,16.11
2019-04-30T13:00:34.279Z,15.89
2019-04-30T13:03:08.686Z,15.93
2019-04-30T13:05:43.202Z,15.84
2019-04-30T13:08:20.757Z,15.46
2019-04-30T13:10:55.050Z,15.44
2019-04-30T13:13:32.223Z,15.44
2019-04-30T13:16:06.278Z,15.39
2019-04-30T13:18:40.648Z,15.69
2019-04-30T13:21:16.285Z,15.75
2019-04-30T13:23:50.945Z,15.30
2019-04-30T13:26:25.654Z,15.69
2019-04-30T13:29:04.774Z,15.38
2019-04-30T13:31:37.857Z,14.73
2019-04-30T13:34:29.963Z,14.42
2019-04-30T13:37:04.388Z,15.08
2019-04-30T13:39:52.263Z,14.99
2019-04-30T13:42:29.249Z,15.34
2019-04-30T13:45:03.940Z,15.26
2019-04-30T13:47:39.056Z,15.26
2019-04-30T13:50:13.686Z,15.49
2019-04-30T13:52:48.866Z,15.47
2019-04-30T13:55:23.313Z,15.47
2019-04-30T13:57:57.728Z,14.27
2019-04-30T14:00:31.096Z,14.27
2019-04-30T14:03:22.473Z,14.12
2019-04-30T14:05:59.330Z,14.65
2019-04-30T14:08:39.288Z,14.70
2019-04-30T14:11:13.891Z,14.16
2019-04-30T14:13:50.305Z,14.22
2019-04-30T14:16:25.271Z,14.22
2019-04-30T14:18:59.862Z,14.61
2019-04-30T14:21:35.383Z,14.26
2019-04-30T14:24:11.274Z,13.93
2019-04-30T14:26:45.859Z,13.57
2019-04-30T14:29:20.316Z,13.83
2019-04-30T14:31:54.869Z,13.60
2019-04-30T14:34:29.328Z,13.19
2019-04-30T14:37:03.922Z,13.11
2019-04-30T14:39:38.916Z,13.38
2019-04-30T14:42:14.599Z,13.13
2019-04-30T14:44:52.551Z,13.13
2019-04-30T14:47:41.005Z,13.47
2019-04-30T14:50:18.492Z,13.78
2019-04-30T14:53:03.096Z,14.55
2019-04-30T14:56:09.470Z,14.07
2019-04-30T14:59:07.277Z,13.55
2019-04-30T15:01:49.103Z,14.09
2019-04-30T15:04:25.304Z,14.13
2019-04-30T15:07:00.279Z,14.32
2019-04-30T15:09:34.734Z,14.49
2019-04-30T15:12:09.682Z,15.72
2019-04-30T15:14:44.248Z,15.24
2019-04-30T15:17:18.739Z,15.12
2019-04-30T15:19:54.529Z,14.06
2019-04-30T15:22:29.052Z,14.66
2019-04-30T15:25:03.656Z,16.34
2019-04-30T15:27:45.187Z,16.33
2019-04-30T15:30:21.626Z,16.33
2019-04-30T15:32:55.335Z,17.88
2019-04-30T15:35:29.779Z,18.76
2019-04-30T15:38:02.833Z,19.11
2019-04-30T15:40:38.729Z,18.42
2019-04-30T15:43:11.908Z,18.82
2019-04-30T15:45:44.727Z,20.28
2019-04-30T15:48:19.684Z,20.51
2019-04-30T15:50:54.091Z,20.30
2019-04-30T15:53:28.633Z,21.89
2019-04-30T15:56:03.103Z,21.89
2019-04-30T15:58:39.416Z,22.09
2019-04-30T16:01:14.369Z,23.58
2019-04-30T16:03:50.510Z,22.05
2019-04-30T16:06:24.945Z,22.29
2019-04-30T16:09:01.281Z,21.66
2019-04-30T16:11:49.229Z,21.98
2019-04-30T16:14:33.274Z,22.03
2019-04-30T16:17:14.936Z,22.45
2019-04-30T16:19:49.322Z,22.46
2019-04-30T16:22:23.864Z,22.46
2019-04-30T16:24:56.856Z,23.44
2019-04-30T16:27:30.938Z,24.62
2019-04-30T16:30:05.779Z,24.05
2019-04-30T16:32:40.285Z,23.19
2019-04-30T16:35:14.951Z,22.94
2019-04-30T16:37:49.707Z,23.28
2019-04-30T16:40:24.285Z,23.71
2019-04-30T16:42:58.696Z,24.07
2019-04-30T16:45:31.641Z,24.01
2019-04-30T16:48:05.927Z,24.26
2019-04-30T16:50:40.273Z,25.62
2019-04-30T16:53:14.645Z,25.62
2019-04-30T16:55:50.611Z,25.50
2019-04-30T16:58:23.660Z,26.21
2019-04-30T17:00:59.343Z,25.89
2019-04-30T17:03:39.611Z,25.02
2019-04-30T17:06:17.510Z,26.32
2019-04-30T17:09:13.547Z,26.02
2019-04-30T17:12:05.342Z,26.08
2019-04-30T17:14:40.943Z,26.82
2019-04-30T17:17:24.756Z,25.80
2019-04-30T17:19:57.657Z,26.89
2019-04-30T17:22:31.915Z,27.95
2019-04-30T17:25:06.343Z,28.34
2019-04-30T17:27:40.767Z,28.45
2019-04-30T17:30:15.360Z,28.58
2019-04-30T17:32:50.099Z,29.32
2019-04-30T17:35:24.673Z,29.89
2019-04-30T17:37:58.951Z,29.33
2019-04-30T17:40:33.347Z,29.79
2019-04-30T17:43:07.746Z,30.21
2019-04-30T17:45:40.867Z,30.76
2019-04-30T17:48:13.639Z,31.98
2019-04-30T17:50:49.639Z,31.60
2019-04-30T17:53:24.291Z,31.62
2019-04-30T17:55:58.721Z,30.72
2019-04-30T17:58:33.268Z,30.72
2019-04-30T18:01:09.510Z,30.95
2019-04-30T18:03:43.949Z,31.05
2019-04-30T18:06:18.983Z,31.99
2019-04-30T18:08:53.672Z,33.53
2019-04-30T18:11:29.567Z,33.53
2019-04-30T18:14:02.669Z,34.56
2019-04-30T18:16:38.676Z,35.95
2019-04-30T18:19:30.597Z,36.68
2019-04-30T18:22:29.558Z,37.45
2019-04-30T18:25:22.548Z,37.52
2019-04-30T18:27:59.748Z,38.31
2019-04-30T18:30:36.756Z,38.43
2019-04-30T18:33:10.975Z,38.98
2019-04-30T18:35:45.340Z,39.32
2019-04-30T18:38:20.285Z,39.08
2019-04-30T18:40:54.719Z,39.68
2019-04-30T18:43:28.954Z,39.44
2019-04-30T18:46:03.287Z,39.99
2019-04-30T18:48:39.355Z,40.51
2019-04-30T18:51:30.053Z,39.91
2019-04-30T18:53:50.279Z,39.66
2019-04-30T18:56:24.879Z,40.28
2019-04-30T18:58:58.638Z,39.80
2019-04-30T19:01:33.024Z,40.36
2019-04-30T19:04:09.231Z,39.44
2019-04-30T19:07:55.134Z,39.49
2019-04-30T19:10:38.847Z,39.59
2019-04-30T19:13:34.451Z,39.62
2019-04-30T19:16:41.873Z,39.92
2019-04-30T19:19:25.289Z,39.92
2019-04-30T19:21:59.693Z,40.09
2019-04-30T19:24:34.310Z,40.04
2019-04-30T19:27:08.788Z,40.54
2019-04-30T19:29:41.667Z,40.72
2019-04-30T19:32:17.280Z,40.51
2019-04-30T19:34:51.748Z,41.66
2019-04-30T19:37:26.258Z,41.91
2019-04-30T19:40:00.726Z,41.91
2019-04-30T19:42:33.866Z,41.66
2019-04-30T19:45:10.181Z,42.18
2019-04-30T19:47:43.660Z,41.62
2019-04-30T19:50:19.279Z,41.66
2019-04-30T19:52:53.877Z,42.08
2019-04-30T19:55:28.641Z,43.02
2019-04-30T19:58:03.139Z,42.94
2019-04-30T20:00:38.985Z,43.33
2019-04-30T20:03:13.335Z,43.33
2019-04-30T20:05:48.539Z,43.42
2019-04-30T20:08:23.088Z,44.82
2019-04-30T20:10:59.363Z,44.36
2019-04-30T20:13:37.018Z,44.36
2019-04-30T20:16:09.873Z,43.97
2019-04-30T20:18:42.869Z,44.73
2019-04-30T20:21:28.383Z,44.84
2019-04-30T20:23:55.318Z,45.31
2019-04-30T20:29:12.276Z,45.31
2019-04-30T20:31:48.605Z,44.63
2019-04-30T20:34:22.880Z,44.43
2019-04-30T20:36:55.692Z,44.87
2019-04-30T20:39:51.539Z,45.13
2019-04-30T20:42:26.930Z,45.26
2019-04-30T20:44:59.870Z,44.91
2019-04-30T20:47:33.904Z,45.03
2019-04-30T20:50:07.078Z,45.74
2019-04-30T20:52:41.285Z,46.83
2019-04-30T20:55:15.718Z,46.50
2019-04-30T20:57:49.852Z,47.08
2019-04-30T21:00:25.398Z,46.47
2019-04-30T21:02:59.952Z,47.03
2019-04-30T21:05:32.933Z,47.56
2019-04-30T21:08:07.134Z,47.43
2019-04-30T21:10:41.678Z,47.36
2019-04-30T21:13:16.123Z,47.31
2019-04-30T21:15:50.693Z,47.17
2019-04-30T21:18:26.241Z,47.00
2019-04-30T21:21:00.659Z,47.97
2019-04-30T21:23:35.102Z,48.13
2019-04-30T21:26:09.671Z,48.70
2019-04-30T21:28:44.138Z,48.70
2019-04-30T21:31:36.291Z,48.87
2019-04-30T21:34:30.750Z,49.04
2019-04-30T21:37:04.013Z,48.83
2019-04-30T21:39:36.682Z,48.50
2019-04-30T21:42:11.553Z,48.80
2019-04-30T21:44:45.941Z,49.01
2019-04-30T21:47:20.995Z,48.82
2019-04-30T21:49:55.657Z,49.69
2019-04-30T21:52:30.119Z,49.69
2019-04-30T21:56:37.342Z,49.90
2019-04-30T21:59:23.798Z,50.05
2019-04-30T22:01:48.289Z,49.92
2019-04-30T22:04:22.938Z,50.11
2019-04-30T22:06:56.062Z,49.95
2019-04-30T22:09:29.290Z,50.18
2019-04-30T22:12:03.333Z,49.86
2019-04-30T22:14:38.090Z,50.26
2019-04-30T22:17:12.399Z,50.37
2019-04-30T22:19:46.776Z,50.31
2019-04-30T22:22:20.945Z,50.31
2019-04-30T22:24:53.986Z,50.33
2019-04-30T22:27:26.694Z,50.72
2019-04-30T22:30:00.901Z,50.00
2019-04-30T22:32:36.957Z,50.29
2019-04-30T22:35:27.866Z,50.04
2019-04-30T22:38:04.123Z,50.52
2019-04-30T22:40:39.236Z,50.26
2019-04-30T22:43:13.882Z,50.26
2019-04-30T22:45:52.306Z,50.90
2019-04-30T22:48:28.666Z,51.27
2019-04-30T22:51:07.844Z,51.27
2019-04-30T22:53:40.823Z,51.66
2019-04-30T22:56:15.055Z,51.31
2019-04-30T22:58:49.325Z,50.77
2019-04-30T23:01:49.892Z,50.77
2019-04-30T23:04:37.289Z,50.41
2019-04-30T23:07:11.703Z,50.44
2019-04-30T23:09:46.251Z,51.05
2019-04-30T23:12:20.786Z,51.75
2019-04-30T23:14:55.303Z,52.00
2019-04-30T23:17:29.763Z,52.11
2019-04-30T23:20:04.315Z,52.47
2019-04-30T23:22:38.888Z,51.90
2019-04-30T23:25:12.002Z,51.80
2019-04-30T23:27:44.678Z,52.19
2019-04-30T23:30:18.965Z,51.98
2019-04-30T23:32:51.708Z,52.34
2019-04-30T23:35:25.967Z,52.42
2019-04-30T23:38:00.572Z,52.50
2019-04-30T23:40:51.776Z,52.44
2019-04-30T23:43:26.285Z,53.10
2019-04-30T23:46:00.686Z,52.93
2019-04-30T23:48:34.957Z,52.75
2019-04-30T23:51:09.121Z,52.84
2019-04-30T23:53:43.700Z,52.71
2019-04-30T23:56:18.119Z,52.88
2019-04-30T23:58:52.348Z,52.84
